Warning: Javascript must be enabled to use all the features on this page!


Page Loading - Please Wait...

Click to hideNews Bulletins

Peak Streamflow for the Nation

USGS 03011800 Kinzua Creek near Guffey, PA

Mckean County, Pennsylvania
Hydrologic Unit Code 05010001
Latitude  41°45'59", Longitude  78°43'08" NAD27
Drainage area 38.8  square miles
Gage datum 1,540.00 feet above NGVD29
Output formats
Table
Graph
Tab-separated file
peakfq (watstore) format
Reselect output format
Water
Year
Date Gage
Height
(feet)
Stream-
flow
(cfs)
1966 1966-02-13 4.902 550
1967 1967-09-28 8.33 4,110
1968 1968-01-30 5.25 774
1969 1969-04-05 5.63 978
1970 1970-04-02 5.54 924
1971 1971-03-15 4.87 548
1972 1972-06-22 8.99 5,220
1973 1973-03-17 6.97 2,100
1974 1974-04-15 5.48 830
1975 1975-02-24 6.09 1,190
1976 1976-03-03 6.60 1,660
1977 1977-03-13 6.55 1,610
1978 1978-04-04 5.70 960
1979 1979-08-08 5.55 1,220
1980 1980-08-15 7.28 2,880
1981 1981-02-20 5.74 1,370
1982 1981-10-28 6.01 1,610
1983 1983-05-03 4.67 685
1984 1984-06-18 7.47 3,070
1985 1985-02-24 5.38 1,090
1986 1986-06-12 5.53 1,200
1987 1987-09-18 5.99 1,580
1988 1987-11-29 4.49 594
1989 1989-06-20 7.76 3,400
1990 1990-07-12 5.32 1,060
1991 1991-03-04 6.05 1,640
1992 1992-09-22 5.16 957
1993 1992-12-31 5.97 1,560
1994 1994-06-14 7.76 2,920
1995 1994-11-01 4.54 483
1996 1996-01-19 7.92 2,960
1997 1996-10-19 5.332 781
1998 1998-01-08 6.43 1,410
1999 1999-01-24 5.52 870
2000 2000-02-27 4.68 528
2001 2001-02-10 4.40 440
2002 2002-05-14 4.54 483
2003 2003-03-21 5.46 989
2004 2004-09-09 6.10 1,190
2005 2005-07-05 6.09 1,570
2006 2005-11-29 5.23 977
2007 2007-03-15 6.81 2,210
2008 2008-02-06 6.13 1,630
2009 2009-03-09 5.832 1,390
2010 2010-01-25 6.68 2,150
2011 2010-12-01 7.81 3,400
2012 2012-07-31 5.27 989
2013 2013-05-29 5.48 1,130
2014 2014-06-25 5.86 1,220
2015 2015-04-04 4.99 689
2016 2015-12-27 5.43 936
2017 2017-01-12 7.06 2,260
2018 2018-01-12 6.722 1,930
2019 2019-02-08 5.55 1,010
2020 2019-10-31 5.12 757
2021 2020-12-25 5.14 768
?
  Peak Gage-Height Qualification Codes.